createdAt,value
2022-08-25T00:00:30.204Z,101440.03
2022-08-25T00:02:59.546Z,101439.66
2022-08-25T00:05:32.206Z,101440.97
2022-08-25T00:08:01.749Z,101445.09
2022-08-25T00:10:39.389Z,101453.75
2022-08-25T00:13:10.557Z,101448.34
2022-08-25T00:15:39.901Z,101454.13
2022-08-25T00:18:19.537Z,101449.44
2022-08-25T00:20:48.916Z,101448.56
2022-08-25T00:23:18.395Z,101452.19
2022-08-25T00:25:47.882Z,101451.97
2022-08-25T00:28:18.636Z,101448.22
2022-08-25T00:30:47.648Z,101451.84
2022-08-25T00:33:16.151Z,101450.88
2022-08-25T00:35:44.671Z,101453.06
2022-08-25T00:38:14.170Z,101444.81
2022-08-25T00:40:43.660Z,101451.25
2022-08-25T00:43:14.186Z,101441.69
2022-08-25T00:45:44.199Z,101447.00
2022-08-25T00:48:13.133Z,101451.38
2022-08-25T00:50:42.109Z,101456.44
2022-08-25T00:53:13.964Z,101447.25
2022-08-25T00:55:49.307Z,101450.63
2022-08-25T00:58:21.682Z,101450.41
2022-08-25T01:00:54.320Z,101456.31
2022-08-25T01:03:25.247Z,101449.53
2022-08-25T01:06:06.049Z,101464.63
2022-08-25T01:08:35.613Z,101463.53
2022-08-25T01:11:09.185Z,101464.63
2022-08-25T01:13:44.496Z,101462.94
2022-08-25T01:16:22.341Z,101461.00
2022-08-25T01:18:54.081Z,101462.69
2022-08-25T01:21:26.563Z,101463.66
2022-08-25T01:23:56.597Z,101467.75
2022-08-25T01:26:30.710Z,101466.19
2022-08-25T01:29:19.744Z,101466.19
2022-08-25T01:31:49.436Z,101467.16
2022-08-25T01:34:22.773Z,101470.53
2022-08-25T01:36:53.453Z,101475.09
2022-08-25T01:39:22.070Z,101474.13
2022-08-25T01:42:19.877Z,101476.63
2022-08-25T01:44:49.875Z,101478.09
2022-08-25T01:47:18.567Z,101478.66
2022-08-25T01:49:46.989Z,101485.44
2022-08-25T01:52:24.972Z,101483.13
2022-08-25T01:54:54.555Z,101480.94
2022-08-25T01:57:24.591Z,101487.28
2022-08-25T01:59:54.120Z,101482.84
2022-08-25T02:02:24.085Z,101487.75
2022-08-25T02:04:55.092Z,101485.19
2022-08-25T02:07:27.690Z,101492.50
2022-08-25T02:09:56.497Z,101487.41
2022-08-25T02:12:32.357Z,101489.22
2022-08-25T02:15:01.972Z,101488.59
2022-08-25T02:17:31.584Z,101486.91
2022-08-25T02:20:00.139Z,101495.69
2022-08-25T02:22:31.912Z,101489.78
2022-08-25T02:25:02.591Z,101500.50
2022-08-25T02:27:32.765Z,101497.72
2022-08-25T02:30:04.470Z,101502.28
2022-08-25T02:32:33.203Z,101506.25
2022-08-25T02:35:04.673Z,101499.25
2022-08-25T02:37:37.088Z,101502.13
2022-08-25T02:40:07.112Z,101506.72
2022-08-25T02:42:36.135Z,101509.38
2022-08-25T02:45:08.020Z,101507.34
2022-08-25T02:47:37.639Z,101510.94
2022-08-25T02:50:06.576Z,101509.88
2022-08-25T02:52:43.057Z,101514.31
2022-08-25T02:55:14.511Z,101519.06
2022-08-25T02:57:43.874Z,101519.44
2022-08-25T03:00:15.310Z,101518.94
2022-08-25T03:02:45.308Z,101517.25
2022-08-25T03:05:16.050Z,101517.69
2022-08-25T03:07:45.960Z,101521.78
2022-08-25T03:10:17.402Z,101521.78
2022-08-25T03:12:47.957Z,101526.84
2022-08-25T03:15:18.455Z,101519.34
2022-08-25T03:17:50.594Z,101524.53
2022-08-25T03:20:19.963Z,101526.56
2022-08-25T03:22:50.226Z,101522.44
2022-08-25T03:25:33.392Z,101519.16
2022-08-25T03:28:02.500Z,101524.19
2022-08-25T03:30:31.632Z,101527.38
2022-08-25T03:33:01.150Z,101526.44
2022-08-25T03:35:31.030Z,101526.09
2022-08-25T03:38:01.729Z,101531.41
2022-08-25T03:40:30.451Z,101532.88
2022-08-25T03:42:59.209Z,101527.69
2022-08-25T03:45:28.033Z,101535.75
2022-08-25T03:47:56.899Z,101530.31
2022-08-25T03:50:26.025Z,101528.44
2022-08-25T03:52:57.835Z,101525.31
2022-08-25T03:55:28.951Z,101520.47
2022-08-25T03:57:59.811Z,101522.63
2022-08-25T04:00:31.663Z,101519.00
2022-08-25T04:03:00.381Z,101521.66
2022-08-25T04:05:29.046Z,101514.88
2022-08-25T04:07:57.975Z,101521.88
2022-08-25T04:10:27.893Z,101518.25
2022-08-25T04:12:59.140Z,101524.72
2022-08-25T04:15:30.053Z,101521.34
2022-08-25T04:18:00.489Z,101522.72
2022-08-25T04:20:29.078Z,101522.31
2022-08-25T04:23:01.656Z,101521.16
2022-08-25T04:25:31.957Z,101522.50
2022-08-25T04:28:00.668Z,101519.53
2022-08-25T04:30:29.580Z,101521.34
2022-08-25T04:32:58.000Z,101524.00
2022-08-25T04:35:26.402Z,101521.97
2022-08-25T04:37:55.987Z,101516.69
2022-08-25T04:40:29.093Z,101520.31
2022-08-25T04:43:07.905Z,101523.16
2022-08-25T04:45:39.494Z,101528.16
2022-08-25T04:48:08.527Z,101536.31
2022-08-25T04:50:40.971Z,101532.09
2022-08-25T04:53:10.678Z,101524.03
2022-08-25T04:55:43.034Z,101527.25
2022-08-25T04:58:16.702Z,101532.75
2022-08-25T05:00:46.948Z,101534.56
2022-08-25T05:03:17.869Z,101536.25
2022-08-25T05:05:46.809Z,101537.75
2022-08-25T05:08:16.349Z,101545.69
2022-08-25T05:10:45.400Z,101540.50
2022-08-25T05:13:16.556Z,101529.91
2022-08-25T05:15:53.719Z,101543.56
2022-08-25T05:18:32.790Z,101538.19
2022-08-25T05:21:04.518Z,101534.78
2022-08-25T05:23:33.712Z,101539.47
2022-08-25T05:26:06.663Z,101543.91
2022-08-25T05:28:41.029Z,101536.91
2022-08-25T05:31:14.444Z,101546.34
2022-08-25T05:33:50.037Z,101540.19
2022-08-25T05:36:21.079Z,101544.53
2022-08-25T05:38:50.173Z,101543.47
2022-08-25T05:41:22.758Z,101546.13
2022-08-25T05:43:54.826Z,101546.84
2022-08-25T05:46:24.423Z,101541.47
2022-08-25T05:48:53.727Z,101544.72
2022-08-25T05:51:25.710Z,101548.03
2022-08-25T05:53:54.298Z,101541.88
2022-08-25T05:56:23.089Z,101546.44
2022-08-25T05:58:51.630Z,101552.47
2022-08-25T06:01:48.032Z,101554.16
2022-08-25T06:04:19.646Z,101551.13
2022-08-25T06:06:49.107Z,101560.63
2022-08-25T06:09:17.944Z,101556.16
2022-08-25T06:11:46.615Z,101555.13
2022-08-25T06:14:17.654Z,101557.78
2022-08-25T06:16:49.169Z,101559.13
2022-08-25T06:19:17.785Z,101573.03
2022-08-25T06:21:46.491Z,101563.06
2022-08-25T06:24:15.900Z,101559.31
2022-08-25T06:26:45.298Z,101562.81
2022-08-25T06:29:15.973Z,101560.81
2022-08-25T06:31:46.811Z,101569.72
2022-08-25T06:34:15.750Z,101577.13
2022-08-25T06:36:45.847Z,101575.00
2022-08-25T06:39:19.153Z,101571.50
2022-08-25T06:41:58.930Z,101577.84
2022-08-25T06:44:28.489Z,101575.06
2022-08-25T06:46:59.879Z,101575.56
2022-08-25T06:49:31.851Z,101573.09
2022-08-25T06:52:01.712Z,101564.31
2022-08-25T06:54:30.364Z,101567.41
2022-08-25T06:56:58.702Z,101569.28
2022-08-25T06:59:32.039Z,101568.56
2022-08-25T07:02:03.166Z,101572.03
2022-08-25T07:04:32.239Z,101577.13
2022-08-25T07:07:01.018Z,101569.47
2022-08-25T07:09:30.641Z,101579.53
2022-08-25T07:11:59.612Z,101571.38
2022-08-25T07:14:29.069Z,101579.00
2022-08-25T07:16:58.178Z,101582.28
2022-08-25T07:19:29.823Z,101583.66
2022-08-25T07:21:58.275Z,101593.47
2022-08-25T07:24:26.601Z,101601.78
2022-08-25T07:26:58.252Z,101590.97
2022-08-25T07:29:32.955Z,101598.59
2022-08-25T07:32:02.676Z,101591.84
2022-08-25T07:34:52.380Z,101585.59
2022-08-25T07:37:48.388Z,101598.75
2022-08-25T07:40:15.479Z,101604.19
2022-08-25T07:42:46.716Z,101597.06
2022-08-25T07:45:20.452Z,101606.13
2022-08-25T07:47:51.643Z,101605.03
2022-08-25T07:50:22.741Z,101607.47
2022-08-25T07:52:55.314Z,101607.38
2022-08-25T07:55:27.622Z,101614.59
2022-08-25T07:57:57.606Z,101617.00
2022-08-25T08:00:28.124Z,101625.59
2022-08-25T08:02:57.616Z,101617.66
2022-08-25T08:05:31.143Z,101617.25
2022-08-25T08:07:59.878Z,101618.88
2022-08-25T08:10:53.880Z,101619.00
2022-08-25T08:13:20.244Z,101616.09
2022-08-25T08:15:49.999Z,101618.19
2022-08-25T08:18:18.980Z,101611.16
2022-08-25T08:20:51.002Z,101614.41
2022-08-25T08:23:19.630Z,101611.56
2022-08-25T08:25:48.459Z,101612.41
2022-08-25T08:28:16.768Z,101617.25
2022-08-25T08:30:52.885Z,101617.09
2022-08-25T08:33:25.676Z,101612.88
2022-08-25T08:36:05.109Z,101615.31
2022-08-25T08:38:34.943Z,101622.94
2022-08-25T08:41:54.323Z,101617.72
2022-08-25T08:44:33.103Z,101620.72
2022-08-25T08:47:09.127Z,101618.91
2022-08-25T08:49:47.988Z,101617.13
2022-08-25T08:52:20.939Z,101617.13
2022-08-25T08:55:05.510Z,101606.25
2022-08-25T08:57:43.112Z,101603.94
2022-08-25T09:00:13.067Z,101607.88
2022-08-25T09:02:51.345Z,101603.50
2022-08-25T09:05:23.461Z,101602.13
2022-08-25T09:07:58.563Z,101595.53
2022-08-25T09:10:36.137Z,101595.44
2022-08-25T09:13:15.334Z,101597.56
2022-08-25T09:16:10.251Z,101596.19
2022-08-25T09:18:57.948Z,101590.09
2022-08-25T09:21:35.113Z,101590.88
2022-08-25T09:24:20.461Z,101575.81
2022-08-25T09:26:58.077Z,101574.09
2022-08-25T09:29:37.597Z,101576.69
2022-08-25T09:32:09.024Z,101577.28
2022-08-25T09:34:39.134Z,101571.88
2022-08-25T09:37:07.642Z,101567.69
2022-08-25T09:39:39.262Z,101566.59
2022-08-25T09:42:08.208Z,101563.22
2022-08-25T09:44:43.932Z,101559.56
2022-08-25T09:47:24.134Z,101567.78
2022-08-25T09:50:00.532Z,101557.28
2022-08-25T09:52:37.601Z,101555.28
2022-08-25T09:55:29.054Z,101550.28
2022-08-25T09:58:00.910Z,101553.47
2022-08-25T10:00:33.857Z,101553.19
2022-08-25T10:03:08.480Z,101549.53
2022-08-25T10:05:42.861Z,101552.94
2022-08-25T10:08:16.253Z,101547.44
2022-08-25T10:10:57.953Z,101551.53
2022-08-25T10:13:37.907Z,101538.88
2022-08-25T10:16:24.153Z,101537.47
2022-08-25T10:19:08.708Z,101530.81
2022-08-25T10:21:41.329Z,101529.56
2022-08-25T10:24:12.824Z,101525.06
2022-08-25T10:26:57.030Z,101521.25
2022-08-25T10:29:41.737Z,101520.25
2022-08-25T10:32:18.178Z,101527.84
2022-08-25T10:34:51.615Z,101515.91
2022-08-25T10:37:37.362Z,101511.09
2022-08-25T10:40:17.515Z,101510.25
2022-08-25T10:42:58.282Z,101516.00
2022-08-25T10:45:48.136Z,101506.72
2022-08-25T10:48:31.876Z,101509.47
2022-08-25T10:51:09.513Z,101513.38
2022-08-25T10:53:50.922Z,101494.66
2022-08-25T10:56:23.900Z,101501.09
2022-08-25T10:59:25.595Z,101498.25
2022-08-25T11:02:46.515Z,101503.19
2022-08-25T11:05:25.720Z,101501.91
2022-08-25T11:08:00.262Z,101498.47
2022-08-25T11:10:39.208Z,101494.47
2022-08-25T11:13:14.295Z,101481.31
2022-08-25T11:16:15.450Z,101484.91
2022-08-25T11:18:51.732Z,101489.47
2022-08-25T11:21:25.751Z,101494.50
2022-08-25T11:24:00.596Z,101486.16
2022-08-25T11:26:37.231Z,101480.59
2022-08-25T11:29:14.179Z,101485.22
2022-08-25T11:31:53.003Z,101473.19
2022-08-25T11:34:25.482Z,101487.81
2022-08-25T11:37:01.392Z,101486.56
2022-08-25T11:39:49.593Z,101479.88
2022-08-25T11:42:31.644Z,101476.44
2022-08-25T11:45:09.739Z,101461.78
2022-08-25T11:47:53.014Z,101471.25
2022-08-25T11:50:35.202Z,101468.03
2022-08-25T11:53:28.120Z,101460.91
2022-08-25T11:56:02.742Z,101450.94
2022-08-25T11:58:42.868Z,101452.00
2022-08-25T12:01:34.044Z,101455.81
2022-08-25T12:04:33.103Z,101461.69
2022-08-25T12:07:25.795Z,101452.25
2022-08-25T12:10:21.636Z,101453.31
2022-08-25T12:13:01.919Z,101446.59
2022-08-25T12:15:55.557Z,101445.44
2022-08-25T12:18:46.376Z,101453.44
2022-08-25T12:21:31.837Z,101450.66
2022-08-25T12:24:12.427Z,101452.13
2022-08-25T12:26:51.822Z,101468.28
2022-08-25T12:29:33.854Z,101463.75
2022-08-25T12:32:21.673Z,101466.38
2022-08-25T12:35:11.946Z,101461.44
2022-08-25T12:37:58.005Z,101458.69
2022-08-25T12:40:32.244Z,101461.75
2022-08-25T12:43:12.290Z,101462.13
2022-08-25T12:45:46.330Z,101459.91
2022-08-25T12:48:43.982Z,101455.16
2022-08-25T12:51:20.423Z,101452.06
2022-08-25T12:53:53.029Z,101444.84
2022-08-25T12:56:29.159Z,101452.31
2022-08-25T12:59:12.619Z,101453.41
2022-08-25T13:01:57.423Z,101457.00
2022-08-25T13:05:05.877Z,101440.22
2022-08-25T13:07:51.342Z,101447.44
2022-08-25T13:10:36.103Z,101440.38
2022-08-25T13:13:13.562Z,101430.00
2022-08-25T13:15:46.923Z,101442.00
2022-08-25T13:18:30.618Z,101435.94
2022-08-25T13:21:10.563Z,101437.88
2022-08-25T13:23:43.860Z,101433.66
2022-08-25T13:26:17.250Z,101439.66
2022-08-25T13:28:58.206Z,101433.00
2022-08-25T13:31:30.353Z,101433.25
2022-08-25T13:34:02.708Z,101429.03
2022-08-25T13:37:00.604Z,101431.94
2022-08-25T13:39:53.139Z,101424.34
2022-08-25T13:42:27.463Z,101423.91
2022-08-25T13:44:59.543Z,101422.56
2022-08-25T13:47:45.379Z,101428.25
2022-08-25T13:50:33.141Z,101428.16
2022-08-25T13:53:05.839Z,101421.94
2022-08-25T13:55:51.575Z,101413.03
2022-08-25T13:58:38.651Z,101413.88
2022-08-25T14:01:22.419Z,101416.09
2022-08-25T14:04:29.727Z,101422.41
2022-08-25T14:07:19.576Z,101411.47
2022-08-25T14:09:52.248Z,101413.34
2022-08-25T14:12:40.147Z,101414.53
2022-08-25T14:15:14.134Z,101397.03
2022-08-25T14:17:47.917Z,101391.50
2022-08-25T14:20:24.005Z,101398.44
2022-08-25T14:22:58.250Z,101391.09
2022-08-25T14:25:28.357Z,101387.78
2022-08-25T14:28:07.502Z,101404.91
2022-08-25T14:30:43.274Z,101400.88
2022-08-25T14:33:17.408Z,101398.25
2022-08-25T14:35:50.183Z,101381.63
2022-08-25T14:38:21.705Z,101391.94
2022-08-25T14:40:51.158Z,101388.69
2022-08-25T14:43:23.724Z,101387.28
2022-08-25T14:45:54.648Z,101399.16
2022-08-25T14:48:28.631Z,101400.19
2022-08-25T14:51:00.231Z,101399.09
2022-08-25T14:53:29.504Z,101387.88
2022-08-25T14:55:59.011Z,101395.38
2022-08-25T14:58:28.040Z,101390.53
2022-08-25T15:01:06.524Z,101389.50
2022-08-25T15:03:41.678Z,101391.28
2022-08-25T15:06:14.724Z,101382.63
2022-08-25T15:09:03.251Z,101385.84
2022-08-25T15:11:33.037Z,101388.00
2022-08-25T15:14:03.852Z,101389.03
2022-08-25T15:16:36.651Z,101396.72
2022-08-25T15:19:08.641Z,101388.94
2022-08-25T15:21:39.826Z,101393.97
2022-08-25T15:24:11.473Z,101394.81
2022-08-25T15:29:25.702Z,101387.16
2022-08-25T15:31:55.863Z,101381.28
2022-08-25T15:34:26.019Z,101372.75
2022-08-25T15:36:54.703Z,101366.81
2022-08-25T15:39:23.031Z,101369.00
2022-08-25T15:41:52.599Z,101371.81
2022-08-25T15:44:26.207Z,101363.97
2022-08-25T15:46:57.803Z,101364.69
2022-08-25T15:49:31.457Z,101367.19
2022-08-25T15:52:01.947Z,101358.28
2022-08-25T15:54:31.407Z,101358.44
2022-08-25T15:57:00.526Z,101347.94
2022-08-25T15:59:29.778Z,101351.59
2022-08-25T16:01:58.533Z,101346.38
2022-08-25T16:04:30.682Z,101350.09
2022-08-25T16:07:01.462Z,101347.38
2022-08-25T16:09:31.416Z,101349.34
2022-08-25T16:12:05.382Z,101342.28
2022-08-25T16:14:36.918Z,101339.28
2022-08-25T16:17:05.963Z,101338.13
2022-08-25T16:19:38.192Z,101327.38
2022-08-25T16:22:08.825Z,101339.75
2022-08-25T16:24:42.038Z,101334.22
2022-08-25T16:27:12.161Z,101331.91
2022-08-25T16:29:42.157Z,101336.78
2022-08-25T16:32:13.464Z,101335.41
2022-08-25T16:34:44.591Z,101342.00
2022-08-25T16:37:13.797Z,101334.72
2022-08-25T16:39:45.804Z,101339.09
2022-08-25T16:45:05.514Z,101337.25
2022-08-25T16:47:38.729Z,101330.91
2022-08-25T16:50:11.162Z,101327.69
2022-08-25T16:52:58.328Z,101333.06
2022-08-25T16:55:39.426Z,101323.13
2022-08-25T16:58:16.049Z,101324.97
2022-08-25T17:00:44.870Z,101321.97
2022-08-25T17:03:15.715Z,101323.28
2022-08-25T17:05:46.757Z,101327.16
2022-08-25T17:08:31.009Z,101327.31
2022-08-25T17:11:09.040Z,101329.34
2022-08-25T17:13:39.311Z,101319.97
2022-08-25T17:16:14.666Z,101328.53
2022-08-25T17:18:47.550Z,101319.94
2022-08-25T17:21:24.324Z,101321.13
2022-08-25T17:23:54.689Z,101319.97
2022-08-25T17:26:27.951Z,101324.28
2022-08-25T17:28:59.574Z,101327.59
2022-08-25T17:31:51.662Z,101322.38
2022-08-25T17:34:23.023Z,101330.25
2022-08-25T17:36:55.144Z,101316.56
2022-08-25T17:39:25.360Z,101322.16
2022-08-25T17:41:55.557Z,101312.97
2022-08-25T17:44:24.088Z,101310.31
2022-08-25T17:46:53.228Z,101302.75
2022-08-25T17:49:23.093Z,101307.13
2022-08-25T17:51:53.294Z,101301.41
2022-08-25T17:54:42.265Z,101302.22
2022-08-25T17:57:12.706Z,101302.38
2022-08-25T17:59:41.581Z,101301.47
2022-08-25T18:02:10.523Z,101303.47
2022-08-25T18:04:39.848Z,101302.94
2022-08-25T18:07:10.589Z,101306.44
2022-08-25T18:09:39.520Z,101307.75
2022-08-25T18:12:08.482Z,101304.75
2022-08-25T18:14:40.790Z,101314.06
2022-08-25T18:17:14.536Z,101316.53
2022-08-25T18:19:51.045Z,101315.31
2022-08-25T18:22:21.669Z,101314.66
2022-08-25T18:24:50.079Z,101317.03
2022-08-25T18:27:18.733Z,101308.50
2022-08-25T18:29:50.538Z,101310.97
2022-08-25T18:32:20.870Z,101307.78
2022-08-25T18:35:00.711Z,101306.03
2022-08-25T18:37:51.362Z,101312.72
2022-08-25T18:40:24.252Z,101306.03
2022-08-25T18:42:57.496Z,101308.38
2022-08-25T18:45:32.895Z,101304.84
2022-08-25T18:48:15.645Z,101304.69
2022-08-25T18:50:46.686Z,101308.84
2022-08-25T18:53:30.322Z,101297.88
2022-08-25T18:56:12.665Z,101298.66
2022-08-25T18:58:41.264Z,101302.47
2022-08-25T19:01:14.480Z,101302.47
2022-08-25T19:03:44.961Z,101305.50
2022-08-25T19:06:17.446Z,101314.69
2022-08-25T19:08:50.183Z,101315.97
2022-08-25T19:11:22.332Z,101308.97
2022-08-25T19:13:51.387Z,101317.75
2022-08-25T19:16:34.824Z,101318.34
2022-08-25T19:19:04.414Z,101311.38
2022-08-25T19:21:36.165Z,101321.19
2022-08-25T19:24:07.129Z,101315.47
2022-08-25T19:26:36.145Z,101320.44
2022-08-25T19:29:10.654Z,101322.66
2022-08-25T19:31:41.471Z,101321.66
2022-08-25T19:34:15.698Z,101321.66
2022-08-25T19:36:44.225Z,101328.47
2022-08-25T19:39:16.575Z,101334.50
2022-08-25T19:41:46.839Z,101334.66
2022-08-25T19:44:23.170Z,101330.66
2022-08-25T19:46:51.752Z,101331.13
2022-08-25T19:49:23.189Z,101330.75
2022-08-25T19:51:54.617Z,101328.38
2022-08-25T19:54:28.714Z,101330.91
2022-08-25T19:57:00.601Z,101329.22
2022-08-25T19:59:40.403Z,101328.47
2022-08-25T20:02:15.396Z,101328.84
2022-08-25T20:04:49.622Z,101334.09
2022-08-25T20:07:23.751Z,101323.13
2022-08-25T20:09:57.114Z,101332.44
2022-08-25T20:12:28.499Z,101337.56
2022-08-25T20:14:58.184Z,101344.88
2022-08-25T20:17:28.658Z,101347.84
2022-08-25T20:20:00.306Z,101346.78
2022-08-25T20:22:33.511Z,101351.31
2022-08-25T20:25:13.583Z,101346.25
2022-08-25T20:27:55.337Z,101351.88
2022-08-25T20:30:27.389Z,101346.53
2022-08-25T20:32:58.382Z,101354.50
2022-08-25T20:35:29.518Z,101353.09
2022-08-25T20:38:04.753Z,101346.91
2022-08-25T20:40:37.074Z,101353.69
2022-08-25T20:43:06.646Z,101353.44
2022-08-25T20:45:41.746Z,101352.59
2022-08-25T20:48:11.512Z,101352.84
2022-08-25T20:50:43.695Z,101360.91
2022-08-25T20:53:13.541Z,101360.63
2022-08-25T20:55:44.910Z,101359.94
2022-08-25T20:58:15.227Z,101360.22
2022-08-25T21:00:56.372Z,101368.09
2022-08-25T21:03:26.970Z,101367.44
2022-08-25T21:05:55.470Z,101365.31
2022-08-25T21:08:28.667Z,101373.91
2022-08-25T21:10:58.909Z,101379.41
2022-08-25T21:13:27.891Z,101370.66
2022-08-25T21:16:03.943Z,101368.75
2022-08-25T21:18:40.507Z,101371.94
2022-08-25T21:21:16.855Z,101378.84
2022-08-25T21:23:49.441Z,101381.53
2022-08-25T21:26:23.598Z,101374.66
2022-08-25T21:28:55.486Z,101371.97
2022-08-25T21:31:28.737Z,101368.34
2022-08-25T21:34:01.132Z,101364.59
2022-08-25T21:36:32.377Z,101358.41
2022-08-25T21:39:02.883Z,101360.66
2022-08-25T21:41:43.021Z,101355.31
2022-08-25T21:44:17.065Z,101353.50
2022-08-25T21:46:54.128Z,101356.44
2022-08-25T21:49:27.471Z,101358.41
2022-08-25T21:52:00.988Z,101361.53
2022-08-25T21:54:33.804Z,101369.22
2022-08-25T21:57:06.293Z,101360.38
2022-08-25T21:59:41.027Z,101357.03
2022-08-25T22:02:11.572Z,101360.09
2022-08-25T22:04:45.058Z,101360.94
2022-08-25T22:07:14.323Z,101360.78
2022-08-25T22:09:50.736Z,101352.53
2022-08-25T22:12:25.938Z,101361.97
2022-08-25T22:14:55.264Z,101353.09
2022-08-25T22:17:30.540Z,101354.09
2022-08-25T22:20:01.817Z,101354.81
2022-08-25T22:22:32.775Z,101358.47
2022-08-25T22:25:01.364Z,101358.88
2022-08-25T22:27:40.666Z,101357.78
2022-08-25T22:30:17.572Z,101353.69
2022-08-25T22:32:48.175Z,101361.41
2022-08-25T22:35:22.281Z,101354.25
2022-08-25T22:37:51.237Z,101357.91
2022-08-25T22:40:20.269Z,101361.84
2022-08-25T22:42:56.559Z,101362.94
2022-08-25T22:45:25.913Z,101351.31
2022-08-25T22:47:57.896Z,101354.38
2022-08-25T22:50:36.281Z,101354.38
2022-08-25T22:53:16.989Z,101355.50
2022-08-25T22:55:46.311Z,101350.31
2022-08-25T22:58:17.346Z,101348.63
2022-08-25T23:00:46.708Z,101348.63
2022-08-25T23:03:15.474Z,101345.66
2022-08-25T23:05:44.332Z,101341.03
2022-08-25T23:08:14.840Z,101345.94
2022-08-25T23:10:58.552Z,101351.41
2022-08-25T23:13:33.968Z,101344.66
2022-08-25T23:16:03.179Z,101346.63
2022-08-25T23:18:34.474Z,101348.59
2022-08-25T23:21:24.351Z,101343.94
2022-08-25T23:23:53.313Z,101345.25
2022-08-25T23:26:23.488Z,101345.81
2022-08-25T23:28:54.222Z,101341.59
2022-08-25T23:31:22.963Z,101340.91
2022-08-25T23:33:52.523Z,101341.59
2022-08-25T23:36:22.179Z,101344.56
2022-08-25T23:38:51.801Z,101336.00
2022-08-25T23:41:23.501Z,101339.09
2022-08-25T23:43:55.912Z,101339.94
2022-08-25T23:46:26.292Z,101336.72
2022-08-25T23:48:56.159Z,101332.38
2022-08-25T23:51:28.217Z,101333.03
2022-08-25T23:53:59.270Z,101332.50
2022-08-25T23:56:28.688Z,101329.69
2022-08-25T23:58:59.247Z,101328.44
